首页
METAR-TAF:

METAR-TAF

机场 :

蘇聖瑪麗, 密歇根州, 美国

纬度: 46-15N, 经度: 084-28W, 海拔: 244米

当前天气观测

该预报发布于29分钟前的23:56 UTC
风速4节,风向北转东北
温度 -12°C
湿度 85%
气压 1025 hPa
能見度: 16.1公里
少量云层高于2100英尺
散云层高于2800英尺
阴天层高于3800英尺

METAR: KCIU 112356Z AUTO 02004KT 10SM FEW021 SCT028 OVC038 M12/M14 A3026 RMK AO2 SNE37 SLP267 P0000 60000 T11171144 11078 21122 53001 FZRANO

时间: 19:25 (00:25 UTC)


TAF: 丢失

超过4000个机场的气象观测和天气预报(METAR&TAF报告)。

可查询的气象台以黄色和红色小点在地图上表示。

将鼠标移到小点上方,可查看气象台名称。

然后点击查看天气观测和预报。

如需切换地图:点击带黑十字的绿色按钮放大地图;点击带横线的绿色按钮缩小地图;或者点击绿色箭头查看邻近地区的地图。


METAR-TAF: